Time;durP1;ratioP1;P1;durP2;ratioP2;P2;SDS_P1;SDS_P2;PMS_P1;PMS_P2;Temp;Humidity;BMP_temperature;BMP_pressure;BME280_temperature;BME280_humidity;BME280_pressure;Samples;Min_cycle;Max_cycle;Signal;HPM_P1;HPM_P2
2021/06/25 00:00:07;;;;;;;10.90;2.77;;;;;;;32.58;37.88;99508.09;1825368;77;21027;-49
2021/06/25 00:02:35;;;;;;;7.08;3.17;;;;;;;32.58;37.87;99509.95;1823838;77;21059;-48
2021/06/25 00:05:05;;;;;;;12.25;3.40;;;;;;;32.57;37.89;99509.11;1826550;77;21074;-45
2021/06/25 00:07:33;;;;;;;7.80;2.70;;;;;;;32.56;37.90;99507.41;1822902;77;40027;-50
2021/06/25 00:10:04;;;;;;;8.35;2.85;;;;;;;32.55;37.89;99500.30;1826330;77;21012;-51
2021/06/25 00:12:32;;;;;;;16.97;3.58;;;;;;;32.50;38.03;99502.77;1818526;77;21113;-51
2021/06/25 00:14:59;;;;;;;9.18;3.08;;;;;;;32.45;38.12;99505.25;1825001;77;21989;-49
2021/06/25 00:17:26;;;;;;;9.03;2.90;;;;;;;32.42;38.19;99502.91;1825306;77;21027;-46
2021/06/25 00:19:54;;;;;;;9.78;3.05;;;;;;;32.40;38.20;99511.80;1825823;77;21196;-50
2021/06/25 00:22:21;;;;;;;9.20;3.15;;;;;;;32.39;38.25;99500.57;1822850;77;21043;-49
2021/06/25 00:24:49;;;;;;;8.63;3.12;;;;;;;32.35;38.33;99502.02;1827546;77;21065;-47
2021/06/25 00:27:17;;;;;;;9.05;3.25;;;;;;;32.34;38.37;99509.84;1824293;77;21043;-49
2021/06/25 00:29:44;;;;;;;8.65;2.62;;;;;;;32.32;38.39;99507.84;1827211;77;21026;-45
2021/06/25 00:32:12;;;;;;;10.53;3.40;;;;;;;32.32;38.40;99507.31;1824797;77;21079;-50
2021/06/25 00:34:38;;;;;;;13.03;3.05;;;;;;;32.31;38.45;99504.28;1795072;77;21046;-50
2021/06/25 00:37:07;;;;;;;6.85;2.75;;;;;;;32.28;38.55;99498.36;1824081;77;21035;-50
2021/06/25 00:39:36;;;;;;;9.10;3.15;;;;;;;32.21;38.61;99495.08;1779266;77;21469;-51
2021/06/25 00:42:06;;;;;;;10.80;2.95;;;;;;;32.20;38.64;99489.83;1825835;77;21058;-45
2021/06/25 00:44:33;;;;;;;11.78;3.05;;;;;;;32.19;38.65;99486.77;1822092;77;21124;-45
2021/06/25 00:47:00;;;;;;;10.30;3.20;;;;;;;32.19;38.62;99483.52;1789941;77;21042;-49
2021/06/25 00:49:29;;;;;;;8.40;3.55;;;;;;;32.21;38.61;99481.96;1801015;77;21516;-43
2021/06/25 00:51:56;;;;;;;7.30;2.95;;;;;;;32.21;38.61;99480.11;1793607;78;21094;-43
2021/06/25 00:54:23;;;;;;;11.00;3.22;;;;;;;32.22;38.58;99472.24;1795083;77;21029;-50
2021/06/25 00:56:51;;;;;;;11.45;3.55;;;;;;;32.22;38.57;99473.60;1765695;78;22043;-42
2021/06/25 00:59:18;;;;;;;5.33;2.52;;;;;;;32.22;38.56;99473.60;1795960;77;22276;-50
2021/06/25 01:01:47;;;;;;;6.55;2.60;;;;;;;32.22;38.55;99478.22;1793280;78;20934;-46
2021/06/25 01:04:14;;;;;;;6.80;2.87;;;;;;;32.22;38.52;99473.60;1790778;78;21062;-51
2021/06/25 01:06:41;;;;;;;9.23;3.35;;;;;;;32.22;38.52;99472.24;1793102;78;21501;-50
2021/06/25 01:09:09;;;;;;;7.15;2.58;;;;;;;32.21;38.52;99474.66;1799551;77;21570;-48
2021/06/25 01:11:37;;;;;;;5.87;2.58;;;;;;;32.23;38.52;99473.11;1788516;78;21026;-51
2021/06/25 01:14:04;;;;;;;11.48;2.98;;;;;;;32.20;38.61;99470.23;1793129;78;21030;-51
2021/06/25 01:16:32;;;;;;;9.88;2.75;;;;;;;32.06;38.84;99471.16;1793850;78;21091;-48
2021/06/25 01:18:59;;;;;;;6.62;2.87;;;;;;;31.97;39.04;99467.67;1797628;77;21003;-50
2021/06/25 01:21:26;;;;;;;9.78;3.10;;;;;;;31.91;39.14;99464.38;1796428;78;21950;-48
2021/06/25 01:23:54;;;;;;;11.73;3.37;;;;;;;31.88;39.19;99465.29;1794534;78;21497;-49
2021/06/25 01:26:21;;;;;;;9.33;2.72;;;;;;;31.88;39.19;99465.29;1792931;77;21019;-51
2021/06/25 01:28:48;;;;;;;9.75;2.90;;;;;;;31.85;39.19;99464.62;1766014;78;21073;-42
2021/06/25 01:31:16;;;;;;;10.58;3.08;;;;;;;31.83;39.23;99457.17;1792720;78;21088;-47
2021/06/25 01:33:44;;;;;;;12.55;2.80;;;;;;;31.79;39.31;99458.61;1790749;78;21141;-49
2021/06/25 01:36:11;;;;;;;7.15;2.90;;;;;;;31.79;39.29;99457.25;1767233;78;21045;-51
2021/06/25 01:38:41;;;;;;;9.45;3.25;;;;;;;31.81;39.28;99458.41;1774302;78;21141;-42
2021/06/25 01:41:08;;;;;;;12.00;3.72;;;;;;;31.83;39.24;99464.50;1796431;78;21015;-50
2021/06/25 01:43:37;;;;;;;10.43;2.95;;;;;;;31.83;39.20;99461.25;1796247;78;21030;-45
2021/06/25 01:46:07;;;;;;;8.40;2.67;;;;;;;31.84;39.19;99467.03;1770056;78;21159;-48
2021/06/25 01:48:34;;;;;;;9.93;2.75;;;;;;;31.87;39.12;99467.67;1796983;77;21148;-48
2021/06/25 01:51:03;;;;;;;9.78;2.77;;;;;;;31.85;39.12;99461.89;1791977;78;21043;-49
2021/06/25 01:53:30;;;;;;;13.60;2.80;;;;;;;31.85;39.06;99464.62;1792354;78;21109;-49
2021/06/25 01:56:00;;;;;;;10.78;2.92;;;;;;;31.81;39.11;99461.14;1778190;78;21085;-50
2021/06/25 01:58:28;;;;;;;11.53;3.02;;;;;;;31.74;39.24;99456.98;1789556;78;21113;-52
2021/06/25 02:01:16;;;;;;;6.45;2.95;;;;;;;31.70;39.29;99452.94;1759124;78;21066;-46
2021/06/25 02:03:46;;;;;;;9.80;2.40;;;;;;;31.72;39.29;99455.47;1793459;78;21022;-53
2021/06/25 02:06:14;;;;;;;8.90;3.10;;;;;;;31.74;39.26;99454.26;1791557;78;21054;-46
2021/06/25 02:08:41;;;;;;;9.60;3.30;;;;;;;31.75;39.21;99458.64;1791947;78;21077;-49
2021/06/25 02:11:11;;;;;;;14.05;3.17;;;;;;;31.76;39.25;99457.63;1790891;78;21081;-46
2021/06/25 02:13:39;;;;;;;9.13;3.25;;;;;;;31.79;39.19;99458.61;1792539;78;21678;-52
2021/06/25 02:16:06;;;;;;;10.10;3.00;;;;;;;31.82;39.14;99455.47;1790734;78;20942;-46
2021/06/25 02:18:33;;;;;;;6.83;3.10;;;;;;;31.86;39.08;99462.76;1760736;78;21065;-43
2021/06/25 02:21:01;;;;;;;13.72;3.08;;;;;;;31.90;39.00;99464.57;1791412;78;21070;-50
2021/06/25 02:23:28;;;;;;;9.65;3.37;;;;;;;31.95;38.91;99471.64;1792926;78;21108;-45
2021/06/25 02:25:55;;;;;;;11.18;3.05;;;;;;;32.00;38.79;99462.38;1761415;78;21045;-50
2021/06/25 02:28:22;;;;;;;8.98;3.10;;;;;;;32.07;38.68;99472.00;1793749;78;21105;-42
2021/06/25 02:30:49;;;;;;;10.28;2.98;;;;;;;32.13;38.55;99470.70;1791173;78;22142;-46
2021/06/25 02:33:16;;;;;;;8.13;3.20;;;;;;;32.21;38.43;99473.30;1788744;78;20986;-42
2021/06/25 02:35:43;;;;;;;13.95;3.25;;;;;;;32.32;38.21;99476.53;1791328;78;21131;-51
2021/06/25 02:38:10;;;;;;;8.45;3.47;;;;;;;32.43;38.00;99481.45;1789666;78;21106;-50
2021/06/25 02:40:38;;;;;;;10.75;3.30;;;;;;;32.51;37.83;99482.66;1790781;78;21046;-48
2021/06/25 02:43:05;;;;;;;12.90;3.70;;;;;;;32.57;37.67;99484.59;1758795;78;21049;-49
2021/06/25 02:45:34;;;;;;;9.15;3.30;;;;;;;32.65;37.56;99485.52;1788513;78;21047;-49
2021/06/25 02:48:02;;;;;;;11.68;3.50;;;;;;;32.70;37.47;99488.48;1794782;78;21098;-47
2021/06/25 02:50:31;;;;;;;17.87;3.50;;;;;;;32.64;37.41;99483.85;1786408;77;21073;-47
2021/06/25 02:52:58;;;;;;;11.85;3.77;;;;;;;32.36;37.85;99487.34;1792491;78;21146;-41
2021/06/25 02:55:26;;;;;;;10.48;3.42;;;;;;;32.12;38.31;99500.31;1792642;78;21066;-48
2021/06/25 02:57:53;;;;;;;11.90;3.22;;;;;;;31.95;38.67;99493.41;1756951;79;20943;-50
2021/06/25 03:00:20;;;;;;;8.45;3.17;;;;;;;31.79;38.99;99492.61;1783596;79;21143;-46
2021/06/25 03:02:47;;;;;;;11.95;3.70;;;;;;;31.67;39.22;99494.12;1785716;78;21026;-48
2021/06/25 03:05:15;;;;;;;10.40;3.40;;;;;;;31.60;39.37;99494.03;1789004;78;22271;-47
2021/06/25 03:07:44;;;;;;;12.55;3.45;;;;;;;31.61;39.44;99486.74;1787791;78;21043;-43
2021/06/25 03:10:12;;;;;;;9.65;3.55;;;;;;;31.62;39.44;99484.33;1789970;78;21667;-45
2021/06/25 03:15:39;;;;;;;16.65;3.70;;;;;;;31.69;39.34;99492.08;1764920;78;21054;-47
2021/06/25 03:18:09;;;;;;;12.85;3.67;;;;;;;31.75;39.24;99498.09;1789088;78;21500;-43
2021/06/25 03:20:37;;;;;;;11.10;3.50;;;;;;;31.81;39.11;99486.45;1787519;78;21066;-48
2021/06/25 03:23:05;;;;;;;12.95;4.45;;;;;;;31.89;39.00;99486.00;1787827;78;21026;-50
2021/06/25 03:25:33;;;;;;;18.42;4.10;;;;;;;31.97;38.86;99488.61;1790787;78;21074;-47
2021/06/25 03:27:59;;;;;;;11.85;4.22;;;;;;;32.03;38.72;99480.52;1761813;79;21306;-49
2021/06/25 03:30:26;;;;;;;16.95;4.12;;;;;;;32.11;38.57;99476.87;1772309;80;21460;-48
2021/06/25 03:32:54;;;;;;;16.23;4.58;;;;;;;32.18;38.42;99475.05;1774839;78;21058;-50
2021/06/25 03:35:21;;;;;;;9.08;3.90;;;;;;;32.27;38.26;99478.47;1789425;78;21098;-42
2021/06/25 03:37:49;;;;;;;13.53;4.75;;;;;;;32.35;38.13;99474.78;1785446;78;21130;-49
2021/06/25 03:40:17;;;;;;;14.98;4.22;;;;;;;32.44;37.98;99479.57;1789090;78;21049;-47
2021/06/25 03:42:44;;;;;;;12.20;4.22;;;;;;;32.49;37.81;99476.56;1788200;78;21288;-48
2021/06/25 03:45:12;;;;;;;14.55;4.75;;;;;;;32.56;37.72;99477.45;1750910;80;21364;-50
2021/06/25 03:47:40;;;;;;;20.05;4.83;;;;;;;32.60;37.63;99475.20;1759677;78;21523;-50
2021/06/25 03:50:10;;;;;;;12.47;4.53;;;;;;;32.64;37.59;99466.98;1786987;78;21023;-50
2021/06/25 03:52:37;;;;;;;14.38;4.30;;;;;;;32.67;37.55;99467.95;1782620;79;20951;-50
2021/06/25 03:55:06;;;;;;;13.65;4.25;;;;;;;32.70;37.53;99458.02;1780772;79;21554;-51
2021/06/25 03:57:34;;;;;;;14.10;4.80;;;;;;;32.70;37.54;99459.88;1783484;79;21059;-48
2021/06/25 04:00:01;;;;;;;15.05;4.20;;;;;;;32.71;37.54;99465.67;1747036;80;21033;-43
2021/06/25 04:02:27;;;;;;;12.18;4.20;;;;;;;32.72;37.52;99455.11;1763908;79;22592;-50
2021/06/25 04:04:56;;;;;;;12.47;4.35;;;;;;;32.75;37.48;99455.55;1762577;79;21098;-48
2021/06/25 04:07:26;;;;;;;15.45;4.45;;;;;;;32.75;37.46;99452.82;1758712;78;21120;-50
2021/06/25 04:09:53;;;;;;;15.18;4.60;;;;;;;32.75;37.48;99447.37;1791981;78;21231;-46
2021/06/25 04:12:20;;;;;;;12.53;4.30;;;;;;;32.75;37.56;99446.51;1791759;78;21050;-50
2021/06/25 04:14:48;;;;;;;11.28;4.28;;;;;;;32.75;37.70;99436.97;1792231;77;21144;-49
2021/06/25 04:17:16;;;;;;;17.40;4.72;;;;;;;32.76;37.81;99445.48;1793859;77;21061;-48
2021/06/25 04:19:43;;;;;;;15.75;4.03;;;;;;;32.76;37.79;99438.66;1789809;78;21869;-48
2021/06/25 04:22:10;;;;;;;14.85;4.62;;;;;;;32.76;37.76;99448.20;1792810;78;21082;-47
2021/06/25 04:24:38;;;;;;;13.60;4.28;;;;;;;32.76;37.73;99441.39;1772960;78;21113;-45
2021/06/25 04:27:09;;;;;;;12.68;4.78;;;;;;;32.79;37.71;99436.91;1791740;77;21525;-47
2021/06/25 04:29:37;;;;;;;10.48;3.87;;;;;;;32.82;37.63;99433.79;1792904;77;21050;-48
2021/06/25 04:32:05;;;;;;;13.55;3.72;;;;;;;32.84;37.59;99426.25;1793368;78;21003;-47
2021/06/25 04:34:33;;;;;;;13.15;4.55;;;;;;;32.82;37.60;99428.84;1766662;78;21090;-52
2021/06/25 04:37:00;;;;;;;16.02;4.35;;;;;;;32.77;37.66;99425.38;1771332;78;21345;-46
2021/06/25 04:39:28;;;;;;;12.00;3.72;;;;;;;32.71;37.70;99433.80;1796901;77;21245;-50
2021/06/25 04:41:56;;;;;;;13.35;3.80;;;;;;;32.65;37.68;99431.03;1792224;77;21548;-49
2021/06/25 04:44:25;;;;;;;20.08;4.60;;;;;;;32.57;37.59;99431.48;1766729;78;21007;-51
2021/06/25 04:46:52;;;;;;;12.70;4.05;;;;;;;32.50;37.62;99423.80;1787174;78;21452;-46
2021/06/25 04:49:19;;;;;;;14.25;3.85;;;;;;;32.43;37.69;99424.27;1788780;77;21034;-48
2021/06/25 04:51:47;;;;;;;14.55;4.33;;;;;;;32.36;37.70;99425.58;1802955;78;21341;-51
2021/06/25 04:54:14;;;;;;;14.35;3.80;;;;;;;32.31;37.79;99432.63;1770343;78;21069;-48
2021/06/25 04:56:42;;;;;;;10.88;3.58;;;;;;;32.22;37.84;99430.05;1771506;78;21053;-49
2021/06/25 04:59:09;;;;;;;13.90;3.37;;;;;;;32.16;37.85;99429.49;1803199;78;21694;-50
2021/06/25 05:01:36;;;;;;;14.03;3.65;;;;;;;32.10;37.95;99432.98;1802257;78;21570;-47
2021/06/25 05:04:05;;;;;;;12.15;3.90;;;;;;;32.05;38.02;99432.70;1805029;78;21148;-42
2021/06/25 05:06:32;;;;;;;17.85;3.50;;;;;;;32.00;38.01;99428.36;1804919;78;21084;-52
2021/06/25 05:09:01;;;;;;;8.18;3.47;;;;;;;31.95;38.02;99430.82;1803239;78;21108;-50
2021/06/25 05:11:28;;;;;;;11.80;3.65;;;;;;;31.89;38.12;99431.06;1758823;78;21109;-47
2021/06/25 05:13:55;;;;;;;7.30;3.42;;;;;;;31.85;38.06;99429.77;1808224;78;20983;-50
2021/06/25 05:16:23;;;;;;;10.35;3.35;;;;;;;31.81;38.06;99428.48;1777939;78;21191;-49
2021/06/25 05:18:52;;;;;;;12.90;3.75;;;;;;;31.78;38.17;99431.59;1808130;78;21062;-48
2021/06/25 05:21:20;;;;;;;12.93;3.17;;;;;;;31.75;38.14;99435.52;1807781;78;21002;-47
2021/06/25 05:23:49;;;;;;;15.55;3.83;;;;;;;31.73;38.23;99436.24;1808285;78;21038;-49
2021/06/25 05:26:16;;;;;;;12.30;3.60;;;;;;;31.70;38.31;99444.78;1777406;78;21998;-48
2021/06/25 05:28:43;;;;;;;18.82;3.70;;;;;;;31.67;38.31;99451.96;1802867;78;20982;-51
2021/06/25 05:31:10;;;;;;;12.65;3.40;;;;;;;31.66;38.37;99455.73;1807497;78;21014;-50
2021/06/25 05:33:37;;;;;;;10.13;3.20;;;;;;;31.63;38.42;99456.95;1808185;78;21089;-50
2021/06/25 05:36:05;;;;;;;12.98;3.80;;;;;;;31.61;38.46;99456.83;1809068;78;20987;-44
2021/06/25 05:38:32;;;;;;;15.48;3.42;;;;;;;31.59;38.51;99457.51;1774963;78;20933;-42
2021/06/25 05:40:59;;;;;;;19.67;4.97;;;;;;;31.58;38.61;99455.84;1809012;78;21540;-51
2021/06/25 05:43:26;;;;;;;17.02;4.55;;;;;;;31.56;38.92;99453.84;1798641;78;21108;-54
2021/06/25 05:45:53;;;;;;;12.63;4.22;;;;;;;31.56;38.90;99459.28;1806626;78;21100;-50
2021/06/25 05:48:20;;;;;;;14.20;3.80;;;;;;;31.56;38.83;99458.75;1808771;78;21022;-46
2021/06/25 05:50:48;;;;;;;12.90;3.52;;;;;;;31.56;38.83;99453.84;1764966;78;21576;-51
2021/06/25 05:53:16;;;;;;;15.63;3.90;;;;;;;31.56;38.97;99457.39;1794981;78;21430;-44
2021/06/25 05:55:42;;;;;;;11.48;3.52;;;;;;;31.57;38.98;99455.50;1793851;78;21049;-48
2021/06/25 05:58:10;;;;;;;14.60;3.37;;;;;;;31.58;39.03;99459.39;1773872;78;21094;-44
2021/06/25 06:00:39;;;;;;;14.28;3.30;;;;;;;31.59;39.07;99462.45;1780461;78;21078;-52
2021/06/25 06:03:06;;;;;;;14.63;3.35;;;;;;;31.61;39.08;99462.27;1758876;80;21034;-47
2021/06/25 06:05:33;;;;;;;17.32;3.30;;;;;;;31.63;39.02;99461.55;1701337;82;21060;-57
2021/06/25 06:08:02;;;;;;;15.48;3.42;;;;;;;31.66;39.04;99470.69;1770248;80;21588;-58
2021/06/25 06:10:30;;;;;;;12.73;3.22;;;;;;;31.67;38.96;99469.64;1749181;80;21043;-52
2021/06/25 06:12:56;;;;;;;14.30;3.08;;;;;;;31.69;39.04;99473.03;1773750;78;21300;-50
2021/06/25 06:15:25;;;;;;;13.85;3.10;;;;;;;31.68;39.10;99476.78;1759597;79;21610;-52
2021/06/25 06:17:51;;;;;;;12.88;2.83;;;;;;;31.65;39.22;99479.34;1786674;79;22157;-51
2021/06/25 06:20:20;;;;;;;15.58;3.50;;;;;;;31.67;39.18;99479.16;1749856;80;21544;-53
2021/06/25 06:31:22;;;;;;;16.87;2.47;;;;;;;31.67;38.48;99483.23;1762767;79;21105;-47
2021/06/25 06:33:59;;;;;;;8.98;2.60;;;;;;;31.67;38.23;99475.08;1756919;78;21520;-54
2021/06/25 06:36:28;;;;;;;18.12;3.10;;;;;;;31.68;38.14;99484.94;1765124;79;21058;-53
2021/06/25 06:38:57;;;;;;;15.03;2.52;;;;;;;31.68;37.93;99484.94;1785229;79;21089;-53
2021/06/25 06:41:25;;;;;;;13.40;2.72;;;;;;;31.69;37.87;99489.36;1788474;78;21027;-56
2021/06/25 06:43:53;;;;;;;13.45;3.10;;;;;;;31.71;37.80;99494.58;1792273;78;21152;-47
2021/06/25 06:46:21;;;;;;;14.75;3.02;;;;;;;31.71;37.82;99495.94;1785970;78;21517;-48
2021/06/25 06:48:48;;;;;;;8.98;2.80;;;;;;;31.72;38.28;99507.16;1787351;78;21036;-47
2021/06/25 06:51:15;;;;;;;13.75;3.00;;;;;;;31.73;38.57;99501.52;1766872;79;21504;-45
2021/06/25 06:53:43;;;;;;;13.78;3.05;;;;;;;31.73;38.76;99502.89;1785703;78;21039;-46
2021/06/25 06:56:13;;;;;;;13.58;2.55;;;;;;;31.74;39.13;99499.64;1784194;78;21104;-46
2021/06/25 06:58:40;;;;;;;13.15;3.15;;;;;;;31.77;39.33;99506.89;1779868;79;22188;-48
2021/06/25 07:01:08;;;;;;;12.63;2.95;;;;;;;31.79;39.52;99508.06;1787654;78;21090;-47
2021/06/25 07:03:35;;;;;;;15.72;3.10;;;;;;;31.81;39.54;99504.14;1791601;78;21031;-48
2021/06/25 07:06:02;;;;;;;16.60;3.08;;;;;;;31.83;39.48;99501.23;1789917;78;21026;-47
2021/06/25 07:08:28;;;;;;;15.78;2.90;;;;;;;31.85;39.52;99501.34;1781986;78;21952;-46
2021/06/25 07:10:56;;;;;;;25.80;4.28;;;;;;;31.89;39.63;99502.33;1764054;79;22300;-45
2021/06/25 07:13:27;;;;;;;20.23;3.50;;;;;;;31.91;39.43;99500.25;1782206;78;21074;-48
2021/06/25 07:15:55;;;;;;;22.90;3.45;;;;;;;31.93;39.19;99492.77;1780720;78;21106;-52
2021/06/25 07:18:23;;;;;;;33.45;3.80;;;;;;;31.98;38.85;99497.11;1791254;78;21030;-50
2021/06/25 07:20:50;;;;;;;21.80;3.95;;;;;;;32.04;38.22;99487.66;1763698;79;22209;-50
2021/06/25 07:23:17;;;;;;;25.08;3.83;;;;;;;32.17;37.97;99488.84;1765989;79;20936;-52
2021/06/25 07:25:46;;;;;;;25.00;5.15;;;;;;;32.27;38.36;99491.25;1756805;79;21088;-54
2021/06/25 07:28:12;;;;;;;19.23;3.30;;;;;;;32.33;39.49;99498.62;1728200;80;21134;-48
2021/06/25 07:30:38;;;;;;;28.47;3.67;;;;;;;32.31;39.29;99495.25;1764129;79;21603;-54
2021/06/25 07:33:06;;;;;;;22.82;3.25;;;;;;;32.28;38.90;99494.28;1750593;79;21567;-58
2021/06/25 07:35:32;;;;;;;23.50;3.08;;;;;;;32.24;38.20;99494.36;1724353;79;21519;-49
2021/06/25 07:38:00;;;;;;;30.10;4.00;;;;;;;32.21;37.73;99489.63;1763564;79;21038;-50
2021/06/25 07:40:26;;;;;;;18.48;3.20;;;;;;;32.19;37.75;99494.41;1737838;79;21010;-49
2021/06/25 07:42:54;;;;;;;24.47;3.47;;;;;;;32.13;37.57;99487.03;1769074;79;21030;-58
2021/06/25 07:45:22;;;;;;;16.42;3.40;;;;;;;32.10;37.82;99493.39;1728703;79;21604;-59
2021/06/25 07:47:49;;;;;;;21.23;3.50;;;;;;;32.07;37.61;99490.52;1760099;79;20963;-58
2021/06/25 07:50:17;;;;;;;23.55;3.27;;;;;;;32.06;37.19;99488.86;1774414;79;21500;-54
2021/06/25 07:52:44;;;;;;;15.38;2.92;;;;;;;32.04;37.18;99486.79;1743471;80;21055;-49
2021/06/25 07:55:13;;;;;;;23.00;3.77;;;;;;;32.03;36.84;99483.77;1750842;80;21075;-48
2021/06/25 07:57:40;;;;;;;23.20;3.30;;;;;;;32.01;36.79;99477.64;1743952;80;21113;-48
2021/06/25 08:00:09;;;;;;;18.52;3.15;;;;;;;31.99;36.86;99476.51;1739408;81;21045;-48
2021/06/25 08:02:44;;;;;;;16.77;3.20;;;;;;;31.98;36.81;99472.09;1695819;82;21072;-53
2021/06/25 08:05:11;;;;;;;19.40;3.17;;;;;;;31.97;36.56;99472.28;1734247;80;21036;-50
2021/06/25 08:07:39;;;;;;;11.65;2.75;;;;;;;31.96;36.79;99471.45;1749477;80;21066;-47
2021/06/25 08:10:12;;;;;;;15.05;3.20;;;;;;;32.00;36.89;99475.98;1764817;80;22375;-53
2021/06/25 08:12:39;;;;;;;17.95;2.60;;;;;;;32.03;36.88;99485.13;1726098;81;21070;-51
2021/06/25 08:15:13;;;;;;;13.85;2.45;;;;;;;32.08;36.83;99484.05;1730515;81;21049;-59
2021/06/25 08:17:39;;;;;;;11.85;2.12;;;;;;;32.13;36.61;99484.84;1744637;81;22230;-51
2021/06/25 08:20:12;;;;;;;13.93;3.05;;;;;;;32.18;36.45;99493.27;1718062;81;21064;-49
2021/06/25 08:22:40;;;;;;;11.95;2.22;;;;;;;32.23;36.25;99492.16;1729442;81;22204;-43
2021/06/25 08:25:09;;;;;;;10.65;2.17;;;;;;;32.29;36.01;99502.78;1729557;80;21060;-47
2021/06/25 08:27:36;;;;;;;11.55;2.65;;;;;;;32.31;35.58;99497.98;1731344;81;21090;-57
2021/06/25 08:30:06;;;;;;;12.23;2.10;;;;;;;32.36;35.52;99500.95;1743133;81;21018;-46
2021/06/25 08:32:36;;;;;;;18.17;2.40;;;;;;;32.39;35.52;99499.20;1745858;81;21077;-55
2021/06/25 08:35:07;;;;;;;10.53;2.30;;;;;;;32.42;35.40;99502.91;1745002;81;21178;-51
2021/06/25 08:37:34;;;;;;;9.00;2.17;;;;;;;32.46;35.06;99497.91;1721562;81;20996;-48
2021/06/25 08:40:02;;;;;;;7.78;1.90;;;;;;;32.48;34.50;99495.33;1756923;80;21051;-50
2021/06/25 08:42:29;;;;;;;8.43;1.85;;;;;;;32.51;34.50;99496.27;1724729;81;21111;-55
2021/06/25 08:44:59;;;;;;;10.32;1.77;;;;;;;32.54;34.55;99494.52;1745423;81;21573;-47
2021/06/25 08:47:27;;;;;;;16.93;2.30;;;;;;;32.56;34.44;99496.52;1704326;83;21129;-50
2021/06/25 08:49:54;;;;;;;13.48;1.95;;;;;;;32.62;34.42;99494.11;1698636;83;21054;-56
2021/06/25 08:52:21;;;;;;;8.23;1.82;;;;;;;32.64;34.49;99490.13;1723749;82;21086;-49
2021/06/25 08:54:49;;;;;;;16.35;2.02;;;;;;;32.68;34.45;99488.72;1725866;80;21047;-50
2021/06/25 08:57:17;;;;;;;9.50;1.90;;;;;;;32.71;34.18;99484.20;1743562;80;21564;-48
2021/06/25 08:59:46;;;;;;;14.35;2.00;;;;;;;32.76;33.80;99482.26;1749759;81;21880;-52
2021/06/25 09:02:15;;;;;;;10.13;2.00;;;;;;;32.79;33.29;99473.69;1713212;80;21099;-40
2021/06/25 09:04:42;;;;;;;18.67;2.15;;;;;;;32.81;32.99;99471.60;1752293;80;21055;-54
2021/06/25 09:07:12;;;;;;;10.30;2.10;;;;;;;32.84;33.23;99473.94;1725558;80;21110;-50
2021/06/25 09:09:48;;;;;;;12.65;2.27;;;;;;;32.86;33.45;99471.84;1755918;80;21015;-51
2021/06/25 09:12:23;;;;;;;16.52;2.10;;;;;;;32.88;33.52;99476.57;1750740;80;21118;-42
2021/06/25 09:15:13;;;;;;;8.80;2.10;;;;;;;32.90;33.39;99473.16;1709499;80;21345;-42
2021/06/25 09:18:04;;;;;;;15.28;1.77;;;;;;;32.95;33.37;99464.35;1738507;80;21050;-46
2021/06/25 09:20:39;;;;;;;9.58;2.08;;;;;;;33.01;33.35;99473.63;1742481;80;21008;-44
2021/06/25 09:23:11;;;;;;;12.10;1.77;;;;;;;33.09;33.24;99473.47;1722968;80;20937;-40
2021/06/25 09:25:59;;;;;;;8.30;1.70;;;;;;;33.16;32.58;99466.20;1722678;81;21134;-47
2021/06/25 09:28:44;;;;;;;7.78;1.35;;;;;;;33.24;32.00;99471.48;1758929;79;21058;-45
2021/06/25 09:31:18;;;;;;;11.75;2.00;;;;;;;33.33;31.67;99470.27;1730180;79;21041;-49
2021/06/25 09:33:54;;;;;;;7.65;1.70;;;;;;;33.43;31.46;99473.15;1757507;79;21059;-47
2021/06/25 09:36:31;;;;;;;15.75;1.60;;;;;;;33.49;31.52;99472.34;1755054;79;21009;-45
2021/06/25 09:39:06;;;;;;;9.03;1.85;;;;;;;33.55;31.44;99475.60;1754974;80;21191;-44
2021/06/25 09:41:33;;;;;;;8.58;1.95;;;;;;;33.61;31.37;99462.52;1754499;79;21004;-45
2021/06/25 09:44:06;;;;;;;11.83;2.15;;;;;;;33.67;31.26;99467.17;1718045;80;21023;-43
2021/06/25 09:46:37;;;;;;;5.80;1.37;;;;;;;33.73;31.17;99468.26;1719141;79;21887;-44
2021/06/25 09:49:12;;;;;;;6.03;1.70;;;;;;;33.78;30.78;99460.83;1755192;80;21066;-43
2021/06/25 09:51:55;;;;;;;9.58;2.27;;;;;;;33.83;30.87;99461.88;1765185;79;22263;-49
2021/06/25 09:54:22;;;;;;;7.28;1.80;;;;;;;33.89;31.00;99457.47;1752236;79;20990;-48
2021/06/25 10:02:25;;;;;;;12.37;1.85;;;;;;;34.08;31.39;99457.72;1801606;77;21049;-46
2021/06/25 10:05:02;;;;;;;11.80;1.90;;;;;;;34.13;31.54;99450.60;1727582;81;21071;-46
2021/06/25 10:07:30;;;;;;;15.55;2.55;;;;;;;34.21;31.38;99453.67;1707439;82;21429;-46
2021/06/25 10:10:02;;;;;;;13.08;1.95;;;;;;;34.26;31.31;99444.33;1708830;82;21060;-45
2021/06/25 10:12:28;;;;;;;10.20;1.77;;;;;;;34.32;31.30;99446.23;1693844;81;21046;-46
2021/06/25 10:14:55;;;;;;;11.12;2.10;;;;;;;34.35;31.42;99443.08;1681999;83;21001;-47
2021/06/25 10:17:27;;;;;;;7.95;2.72;;;;;;;34.40;31.43;99441.92;1727952;80;21118;-44
2021/06/25 10:20:05;;;;;;;8.10;1.62;;;;;;;34.45;31.32;99440.44;1707901;81;21551;-46
2021/06/25 10:22:32;;;;;;;6.20;1.37;;;;;;;34.49;31.34;99438.45;1779790;78;21018;-45
2021/06/25 10:24:58;;;;;;;6.47;1.75;;;;;;;34.54;31.27;99436.45;1779092;78;20991;-46
2021/06/25 10:27:25;;;;;;;10.13;2.17;;;;;;;34.58;31.29;99427.63;1788041;78;21076;-43
2021/06/25 10:29:53;;;;;;;10.63;3.08;;;;;;;34.61;31.27;99431.28;1780080;79;22173;-48
2021/06/25 10:32:19;;;;;;;7.47;2.75;;;;;;;34.63;31.14;99432.44;1755796;79;21007;-47
2021/06/25 10:34:47;;;;;;;11.03;2.87;;;;;;;34.64;31.02;99427.30;1776100;78;20979;-47
2021/06/25 10:37:21;;;;;;;7.67;2.83;;;;;;;34.63;30.91;99431.07;1773469;79;21022;-49
2021/06/25 10:39:47;;;;;;;10.10;3.40;;;;;;;34.63;30.79;99436.53;1780904;79;21030;-49
2021/06/25 10:42:14;;;;;;;10.08;3.25;;;;;;;34.62;30.62;99437.61;1743027;80;20984;-47
2021/06/25 10:44:54;;;;;;;8.95;3.22;;;;;;;34.62;30.62;99437.61;1767469;79;21101;-50
2021/06/25 10:47:26;;;;;;;8.43;3.27;;;;;;;34.62;30.78;99429.41;1774471;78;21375;-47
2021/06/25 10:50:05;;;;;;;11.43;2.92;;;;;;;34.62;30.83;99430.77;1760028;80;21623;-48
2021/06/25 10:52:37;;;;;;;10.75;3.12;;;;;;;34.64;31.01;99432.77;1791930;78;21074;-49
2021/06/25 10:55:16;;;;;;;8.08;2.85;;;;;;;34.65;31.08;99434.45;1806932;78;21103;-57
2021/06/25 10:57:57;;;;;;;18.77;4.25;;;;;;;34.67;31.16;99436.44;1801634;78;21042;-54
2021/06/25 11:00:40;;;;;;;9.35;3.52;;;;;;;34.68;30.61;99442.20;1800976;78;22260;-50
2021/06/25 11:03:06;;;;;;;11.97;3.20;;;;;;;34.63;29.81;99435.70;1776569;77;21421;-48
2021/06/25 11:05:34;;;;;;;10.80;3.42;;;;;;;34.55;30.24;99425.82;1803126;78;21168;-47
2021/06/25 11:08:19;;;;;;;7.50;2.65;;;;;;;34.54;30.43;99421.43;1795859;78;21034;-45
2021/06/25 11:10:53;;;;;;;8.23;2.60;;;;;;;34.56;30.61;99419.31;1788497;77;21017;-44
2021/06/25 11:13:23;;;;;;;9.85;2.83;;;;;;;34.58;30.75;99418.06;1796959;77;21064;-49
2021/06/25 11:15:57;;;;;;;6.28;2.87;;;;;;;34.61;30.75;99411.33;1749083;78;21876;-49
2021/06/25 11:18:28;;;;;;;5.47;2.50;;;;;;;34.64;30.80;99402.70;1790436;78;21011;-43
2021/06/25 11:21:02;;;;;;;6.00;1.90;;;;;;;34.68;30.77;99402.58;1790442;78;21127;-47
2021/06/25 11:23:44;;;;;;;5.53;2.30;;;;;;;34.72;30.65;99406.61;1786093;78;22163;-53
2021/06/25 11:26:23;;;;;;;8.38;2.30;;;;;;;34.74;30.48;99405.87;1771554;78;21034;-47
2021/06/25 11:28:55;;;;;;;10.10;2.00;;;;;;;34.76;30.37;99401.02;1803347;78;21410;-52
2021/06/25 11:31:26;;;;;;;9.73;1.80;;;;;;;34.78;30.45;99407.14;1767832;78;21536;-44
2021/06/25 11:34:01;;;;;;;6.50;2.10;;;;;;;34.81;30.53;99407.75;1788761;77;21717;-45
2021/06/25 11:36:51;;;;;;;4.00;1.60;;;;;;;34.83;30.59;99413.84;1797017;78;21555;-50
2021/06/25 11:39:34;;;;;;;5.12;2.08;;;;;;;34.85;30.41;99411.73;1794001;78;21039;-48
2021/06/25 11:42:14;;;;;;;6.03;1.75;;;;;;;34.89;30.43;99411.63;1807974;78;21020;-47
2021/06/25 11:44:47;;;;;;;6.72;1.87;;;;;;;34.89;30.63;99405.63;1765154;79;20990;-51
2021/06/25 11:47:23;;;;;;;5.75;1.50;;;;;;;34.91;30.75;99404.05;1787133;78;21049;-47
2021/06/25 11:52:25;;;;;;;6.00;1.75;;;;;;;34.97;30.91;99401.30;1809614;77;21511;-48
2021/06/25 11:55:08;;;;;;;5.40;1.82;;;;;;;35.00;31.03;99402.73;1777684;77;21022;-52